createdAt,value
2022-12-27T00:02:24.270Z,63.70
2022-12-27T00:04:51.294Z,68.07
2022-12-27T00:07:18.264Z,67.18
2022-12-27T00:09:45.224Z,67.78
2022-12-27T00:12:12.189Z,63.95
2022-12-27T00:14:39.239Z,66.85
2022-12-27T00:17:06.360Z,65.32
2022-12-27T00:20:11.702Z,64.13
2022-12-27T00:22:40.178Z,65.78
2022-12-27T00:25:10.868Z,69.20
2022-12-27T00:27:38.458Z,61.67
2022-12-27T00:30:06.224Z,63.92
2022-12-27T00:32:33.303Z,63.28
2022-12-27T00:35:00.236Z,61.95
2022-12-27T00:37:27.716Z,61.65
2022-12-27T00:39:55.003Z,64.60
2022-12-27T00:42:23.380Z,63.45
2022-12-27T00:44:50.558Z,62.72
2022-12-27T00:47:17.594Z,61.58
2022-12-27T00:49:44.873Z,58.47
2022-12-27T00:52:12.016Z,60.08
2022-12-27T00:54:40.995Z,61.58
2022-12-27T00:57:08.225Z,61.50
2022-12-27T00:59:35.621Z,62.03
2022-12-27T01:02:08.255Z,60.92
2022-12-27T01:04:35.155Z,56.60
2022-12-27T01:07:03.744Z,60.47
2022-12-27T01:09:30.757Z,60.65
2022-12-27T01:11:57.859Z,61.35
2022-12-27T01:14:24.894Z,61.20
2022-12-27T01:16:52.546Z,64.20
2022-12-27T01:19:19.777Z,62.65
2022-12-27T01:21:46.736Z,62.50
2022-12-27T01:24:14.218Z,62.53
2022-12-27T01:26:41.659Z,58.88
2022-12-27T01:29:14.265Z,59.85
2022-12-27T01:31:41.279Z,58.08
2022-12-27T01:34:08.372Z,58.60
2022-12-27T01:36:35.388Z,62.65
2022-12-27T01:39:03.744Z,58.42
2022-12-27T01:41:52.306Z,57.28
2022-12-27T01:44:56.877Z,58.45
2022-12-27T01:47:40.216Z,59.85
2022-12-27T01:50:17.376Z,58.13
2022-12-27T01:52:56.611Z,58.05
2022-12-27T01:55:32.575Z,57.60
2022-12-27T01:58:27.139Z,54.90
2022-12-27T02:00:57.633Z,57.35
2022-12-27T02:03:30.956Z,56.40
2022-12-27T02:06:00.974Z,57.40
2022-12-27T02:08:37.354Z,55.22
2022-12-27T02:11:06.016Z,55.53
2022-12-27T02:13:36.044Z,54.58
2022-12-27T02:16:14.145Z,56.25
2022-12-27T02:18:41.622Z,57.42
2022-12-27T02:21:19.621Z,59.90
2022-12-27T02:24:05.910Z,60.17
2022-12-27T02:26:53.457Z,61.75
2022-12-27T02:29:38.729Z,62.58
2022-12-27T02:32:20.830Z,63.05
2022-12-27T02:37:15.136Z,63.80
2022-12-27T02:39:47.132Z,62.80
2022-12-27T02:42:35.102Z,62.85
2022-12-27T02:45:22.034Z,68.07
2022-12-27T02:48:08.090Z,64.53
2022-12-27T02:51:12.794Z,62.35
2022-12-27T02:54:07.307Z,64.38
2022-12-27T02:57:09.974Z,63.22
2022-12-27T03:00:23.323Z,63.28
2022-12-27T03:03:21.069Z,66.00
2022-12-27T03:06:34.775Z,65.97
2022-12-27T03:09:48.943Z,65.13
2022-12-27T03:12:57.819Z,68.60
2022-12-27T03:15:51.313Z,66.43
2022-12-27T03:18:27.609Z,64.85
2022-12-27T03:21:16.195Z,64.93
2022-12-27T03:24:04.938Z,62.85
2022-12-27T03:26:34.683Z,62.88
2022-12-27T03:29:22.152Z,61.47
2022-12-27T03:32:14.415Z,61.33
2022-12-27T03:34:52.122Z,60.55
2022-12-27T03:37:52.108Z,60.58
2022-12-27T03:40:35.465Z,62.45
2022-12-27T03:43:13.341Z,59.17
2022-12-27T03:46:27.128Z,57.78
2022-12-27T03:49:06.957Z,56.97
2022-12-27T03:51:48.853Z,56.92
2022-12-27T03:54:29.917Z,59.33
2022-12-27T03:57:00.743Z,57.38
2022-12-27T03:59:29.656Z,57.28
2022-12-27T04:01:57.115Z,59.08
2022-12-27T04:04:24.263Z,57.58
2022-12-27T04:06:51.547Z,58.60
2022-12-27T04:09:37.531Z,61.10
2022-12-27T04:12:23.285Z,61.78
2022-12-27T04:15:08.713Z,58.50
2022-12-27T04:17:54.781Z,59.53
2022-12-27T04:20:40.763Z,57.95
2022-12-27T04:23:27.089Z,59.38
2022-12-27T04:26:12.409Z,58.20
2022-12-27T04:28:59.117Z,60.70
2022-12-27T04:31:45.039Z,57.08
2022-12-27T04:34:30.405Z,57.72
2022-12-27T04:36:58.454Z,58.55
2022-12-27T04:39:25.418Z,61.80
2022-12-27T04:42:11.262Z,61.40
2022-12-27T04:45:08.933Z,61.45
2022-12-27T04:47:58.757Z,63.30
2022-12-27T04:50:51.992Z,61.83
2022-12-27T04:53:40.847Z,62.67
2022-12-27T04:56:08.352Z,62.22
2022-12-27T04:58:35.593Z,59.58
2022-12-27T05:01:23.020Z,65.78
2022-12-27T05:03:53.039Z,61.85
2022-12-27T05:06:20.397Z,66.30
2022-12-27T05:09:09.234Z,62.10
2022-12-27T05:11:55.155Z,64.90
2022-12-27T05:14:22.215Z,67.47
2022-12-27T05:16:49.939Z,68.65
2022-12-27T05:19:22.103Z,68.07
2022-12-27T05:22:07.591Z,66.93
2022-12-27T05:24:53.762Z,65.75
2022-12-27T05:27:23.732Z,69.13
2022-12-27T05:29:50.699Z,70.53
2022-12-27T05:32:20.364Z,63.47
2022-12-27T05:34:48.069Z,65.15
2022-12-27T05:37:15.107Z,70.05
2022-12-27T05:39:42.735Z,64.53
2022-12-27T05:42:09.718Z,65.10
2022-12-27T05:44:36.840Z,63.30
2022-12-27T05:47:05.579Z,65.72
2022-12-27T05:49:32.567Z,66.13
2022-12-27T05:51:59.538Z,65.53
2022-12-27T05:54:26.663Z,62.33
2022-12-27T05:56:54.136Z,64.68
2022-12-27T05:59:21.180Z,63.00
2022-12-27T06:01:48.515Z,64.72
2022-12-27T06:04:16.659Z,63.90
2022-12-27T06:06:43.647Z,67.72
2022-12-27T06:09:11.929Z,65.38
2022-12-27T06:11:38.959Z,64.13
2022-12-27T06:14:07.026Z,65.20
2022-12-27T06:16:34.099Z,61.35
2022-12-27T06:19:03.832Z,62.00
2022-12-27T06:21:31.384Z,60.08
2022-12-27T06:23:58.596Z,62.42
2022-12-27T06:26:28.071Z,61.05
2022-12-27T06:28:56.664Z,60.50
2022-12-27T06:31:28.015Z,58.03
2022-12-27T06:33:56.226Z,62.95
2022-12-27T06:36:26.501Z,63.63
2022-12-27T06:38:53.712Z,62.00
2022-12-27T06:41:24.810Z,61.42
2022-12-27T06:43:56.419Z,45.65
2022-12-27T06:46:27.496Z,60.22
2022-12-27T06:48:55.304Z,57.40
2022-12-27T06:51:23.288Z,57.72
2022-12-27T06:53:51.731Z,57.65
2022-12-27T06:56:23.455Z,52.92
2022-12-27T06:58:51.399Z,51.63
2022-12-27T07:01:27.357Z,46.63
2022-12-27T07:04:00.340Z,46.45
2022-12-27T07:06:29.484Z,44.33
2022-12-27T07:09:03.815Z,42.45
2022-12-27T07:14:40.873Z,43.58
2022-12-27T07:17:10.666Z,43.38
2022-12-27T07:19:48.302Z,44.53
2022-12-27T07:22:19.855Z,43.78
2022-12-27T07:25:01.486Z,41.65
2022-12-27T07:30:22.612Z,40.83
2022-12-27T07:32:58.196Z,37.72
2022-12-27T07:35:26.572Z,36.72
2022-12-27T07:37:56.932Z,37.55
2022-12-27T07:40:41.873Z,35.40
2022-12-27T07:49:17.909Z,34.88
2022-12-27T07:51:55.382Z,34.70
2022-12-27T07:54:31.237Z,34.60
2022-12-27T07:56:58.281Z,33.40
2022-12-27T07:59:29.807Z,34.90
2022-12-27T08:02:08.596Z,34.92
2022-12-27T08:08:01.434Z,35.13
2022-12-27T08:13:10.098Z,32.40
2022-12-27T08:15:38.981Z,32.38
2022-12-27T08:18:09.201Z,32.47
2022-12-27T08:20:36.726Z,33.75
2022-12-27T08:23:05.993Z,31.88
2022-12-27T08:25:33.126Z,33.08
2022-12-27T08:28:11.225Z,33.50
2022-12-27T08:30:40.072Z,35.53
2022-12-27T08:33:07.428Z,35.78
2022-12-27T08:35:52.661Z,36.22
2022-12-27T08:38:21.109Z,36.88
2022-12-27T08:40:48.101Z,37.10
2022-12-27T08:43:16.613Z,38.92
2022-12-27T08:45:46.007Z,37.25
2022-12-27T08:48:13.283Z,40.55
2022-12-27T08:50:41.080Z,39.97
2022-12-27T08:53:17.797Z,42.70
2022-12-27T08:55:45.998Z,42.28
2022-12-27T08:58:16.372Z,43.60
2022-12-27T09:01:04.377Z,43.80
2022-12-27T09:03:35.726Z,44.47
2022-12-27T09:06:18.082Z,47.60
2022-12-27T09:08:48.680Z,51.55
2022-12-27T09:11:22.308Z,49.40
2022-12-27T09:13:50.820Z,47.63
2022-12-27T09:19:20.399Z,43.13
2022-12-27T09:21:48.524Z,42.72
2022-12-27T09:24:19.396Z,43.60
2022-12-27T09:26:46.646Z,43.20
2022-12-27T09:29:21.817Z,41.78
2022-12-27T09:31:49.171Z,42.22
2022-12-27T09:34:16.218Z,42.42
2022-12-27T09:36:43.318Z,42.75
2022-12-27T09:39:13.975Z,44.97
2022-12-27T09:44:43.985Z,49.85
2022-12-27T09:47:36.465Z,51.95
2022-12-27T09:53:38.254Z,49.92
2022-12-27T09:56:09.338Z,53.17
2022-12-27T09:59:23.918Z,53.90
2022-12-27T10:06:31.523Z,52.67
2022-12-27T10:12:57.283Z,53.80
2022-12-27T10:15:56.011Z,55.65
2022-12-27T10:22:35.964Z,55.92
2022-12-27T10:28:41.910Z,57.35
2022-12-27T10:43:42.051Z,58.40
2022-12-27T10:46:33.513Z,57.10
2022-12-27T10:55:04.883Z,57.88
2022-12-27T10:57:35.328Z,56.25
2022-12-27T11:00:20.438Z,55.15
2022-12-27T11:03:04.111Z,56.58
2022-12-27T11:05:43.396Z,59.17
2022-12-27T11:08:28.145Z,56.55
2022-12-27T11:11:19.283Z,56.65
2022-12-27T11:13:58.046Z,57.53
2022-12-27T11:16:44.305Z,55.50
2022-12-27T11:19:29.154Z,54.65
2022-12-27T11:22:01.063Z,52.80
2022-12-27T11:24:31.016Z,52.70
2022-12-27T11:27:06.939Z,52.25
2022-12-27T11:29:34.754Z,50.88
2022-12-27T11:32:16.795Z,48.35
2022-12-27T11:34:49.088Z,47.53
2022-12-27T11:37:25.949Z,46.03
2022-12-27T11:40:22.588Z,45.63
2022-12-27T11:43:10.617Z,45.03
2022-12-27T11:45:49.460Z,46.10
2022-12-27T11:48:27.936Z,45.10
2022-12-27T11:51:41.022Z,44.03
2022-12-27T11:55:00.781Z,46.10
2022-12-27T11:58:18.821Z,44.40
2022-12-27T12:01:09.864Z,44.83
2022-12-27T12:04:22.551Z,46.22
2022-12-27T12:07:06.919Z,49.25
2022-12-27T12:10:20.874Z,47.45
2022-12-27T12:13:16.178Z,46.42
2022-12-27T12:19:43.046Z,48.95
2022-12-27T12:22:46.437Z,48.92
2022-12-27T12:30:43.043Z,47.25
2022-12-27T12:37:09.479Z,47.87
2022-12-27T12:40:30.505Z,48.05
2022-12-27T12:44:45.065Z,46.75
2022-12-27T12:47:48.366Z,46.88
2022-12-27T12:51:11.751Z,45.85
2022-12-27T12:54:33.979Z,48.00
2022-12-27T12:57:49.363Z,47.33
2022-12-27T13:01:13.819Z,47.90
2022-12-27T13:07:45.101Z,47.38
2022-12-27T13:22:37.085Z,48.45
2022-12-27T13:29:03.215Z,48.30
2022-12-27T13:32:44.653Z,54.13
2022-12-27T13:36:19.982Z,50.90
2022-12-27T13:50:31.768Z,51.28
2022-12-27T13:53:52.369Z,51.92
2022-12-27T13:57:11.347Z,52.40
2022-12-27T14:00:49.149Z,52.60
2022-12-27T14:04:35.179Z,54.53
2022-12-27T14:13:46.946Z,57.25
2022-12-27T14:16:47.135Z,59.40
2022-12-27T14:23:09.177Z,58.65
2022-12-27T14:26:19.481Z,60.00
2022-12-27T14:32:18.349Z,58.30
2022-12-27T14:45:36.858Z,59.38
2022-12-27T14:52:13.160Z,59.45
2022-12-27T14:55:47.014Z,58.47
2022-12-27T14:58:55.672Z,63.28
2022-12-27T15:02:20.040Z,68.22
2022-12-27T15:09:42.913Z,73.22
2022-12-27T15:16:13.195Z,69.18
2022-12-27T15:19:28.385Z,64.75
2022-12-27T15:22:52.456Z,66.85
2022-12-27T15:25:48.145Z,63.63
2022-12-27T15:29:39.696Z,61.58
2022-12-27T15:32:45.962Z,62.50
2022-12-27T15:40:14.384Z,61.97
2022-12-27T15:43:47.001Z,63.25
2022-12-27T15:51:10.774Z,66.30
2022-12-27T15:59:00.279Z,65.70
2022-12-27T16:35:41.327Z,78.93
2022-12-27T16:38:31.797Z,73.95
2022-12-27T16:48:06.548Z,67.38
2022-12-27T16:51:41.051Z,68.75
2022-12-27T17:03:44.569Z,68.22
2022-12-27T17:12:39.648Z,69.65
2022-12-27T17:19:06.390Z,71.68
2022-12-27T17:21:47.375Z,75.68
2022-12-27T17:24:27.377Z,73.35
2022-12-27T17:26:58.265Z,70.65
2022-12-27T17:30:17.128Z,72.88
2022-12-27T17:36:42.468Z,69.80
2022-12-27T17:43:17.448Z,66.63
2022-12-27T17:54:54.218Z,69.28
2022-12-27T17:57:45.794Z,68.00
2022-12-27T18:00:35.475Z,66.90
2022-12-27T18:03:08.882Z,70.22
2022-12-27T18:05:50.173Z,70.35
2022-12-27T18:08:33.601Z,70.45
2022-12-27T18:11:10.319Z,68.50
2022-12-27T18:14:22.656Z,65.88
2022-12-27T18:17:25.333Z,67.65
2022-12-27T18:20:01.629Z,66.68
2022-12-27T18:22:31.875Z,67.03
2022-12-27T18:25:16.353Z,66.47
2022-12-27T18:27:48.148Z,63.53
2022-12-27T18:30:22.438Z,66.40
2022-12-27T18:33:02.836Z,63.58
2022-12-27T18:35:31.931Z,70.22
2022-12-27T18:38:07.701Z,71.60
2022-12-27T18:40:38.796Z,72.95
2022-12-27T18:43:17.657Z,68.72
2022-12-27T18:45:47.661Z,69.75
2022-12-27T18:48:18.832Z,73.55
2022-12-27T18:50:59.768Z,68.47
2022-12-27T18:53:40.948Z,65.13
2022-12-27T18:56:16.007Z,54.90
2022-12-27T18:59:23.184Z,50.53
2022-12-27T19:01:51.718Z,50.67
2022-12-27T19:04:21.443Z,53.33
2022-12-27T19:06:56.826Z,60.30
2022-12-27T19:09:32.745Z,50.72
2022-12-27T19:12:27.427Z,50.42
2022-12-27T19:14:55.288Z,52.97
2022-12-27T19:17:30.630Z,45.65
2022-12-27T19:20:12.587Z,52.53
2022-12-27T19:25:31.384Z,46.53
2022-12-27T19:28:35.825Z,49.92
2022-12-27T19:31:18.029Z,55.17
2022-12-27T19:34:02.926Z,53.15
2022-12-27T19:36:38.836Z,53.55
2022-12-27T19:39:25.338Z,50.55
2022-12-27T19:42:19.314Z,48.92
2022-12-27T19:44:49.718Z,54.88
2022-12-27T19:47:16.938Z,54.85
2022-12-27T19:49:45.179Z,59.42
2022-12-27T19:52:25.500Z,58.85
2022-12-27T19:55:16.358Z,67.60
2022-12-27T19:57:45.535Z,76.25
2022-12-27T20:00:18.161Z,54.47
2022-12-27T20:02:46.134Z,40.05
2022-12-27T20:05:15.313Z,33.50
2022-12-27T20:07:43.854Z,30.67
2022-12-27T20:13:00.616Z,41.85
2022-12-27T20:15:32.345Z,35.65
2022-12-27T20:20:42.140Z,41.58
2022-12-27T20:23:09.853Z,40.28
2022-12-27T20:25:45.584Z,36.50
2022-12-27T20:28:14.364Z,34.83
2022-12-27T20:30:47.917Z,39.10
2022-12-27T20:33:19.470Z,46.90
2022-12-27T20:35:57.064Z,51.17
2022-12-27T20:41:12.924Z,34.40
2022-12-27T20:43:42.953Z,35.35
2022-12-27T20:46:15.030Z,50.83
2022-12-27T20:48:46.333Z,49.70
2022-12-27T20:51:21.454Z,46.00
2022-12-27T20:53:54.893Z,43.53
2022-12-27T20:56:36.755Z,42.53
2022-12-27T20:59:07.222Z,43.55
2022-12-27T21:01:42.392Z,41.63
2022-12-27T21:04:13.051Z,31.70
2022-12-27T21:06:49.985Z,30.40
2022-12-27T21:09:20.511Z,29.58
2022-12-27T21:11:53.502Z,29.10
2022-12-27T21:14:28.417Z,30.73
2022-12-27T21:16:56.742Z,29.55
2022-12-27T21:19:25.550Z,28.77
2022-12-27T21:21:54.824Z,27.00
2022-12-27T21:24:27.554Z,26.50
2022-12-27T21:26:56.528Z,25.23
2022-12-27T21:29:28.488Z,29.83
2022-12-27T21:31:56.237Z,28.63
2022-12-27T21:34:23.704Z,29.55
2022-12-27T21:36:53.486Z,26.75
2022-12-27T21:39:25.367Z,29.80
2022-12-27T21:41:59.913Z,32.33
2022-12-27T21:44:32.018Z,31.40
2022-12-27T21:46:59.271Z,30.75
2022-12-27T21:49:35.099Z,28.85
2022-12-27T21:52:03.543Z,24.67
2022-12-27T21:54:31.963Z,31.17
2022-12-27T21:57:01.060Z,30.58
2022-12-27T21:59:52.646Z,30.98
2022-12-27T22:02:22.513Z,42.13
2022-12-27T22:04:58.258Z,43.20
2022-12-27T22:07:25.212Z,43.78
2022-12-27T22:09:55.514Z,44.00
2022-12-27T22:12:27.728Z,45.80
2022-12-27T22:15:04.318Z,48.10
2022-12-27T22:17:33.754Z,47.92
2022-12-27T22:20:01.963Z,45.17
2022-12-27T22:22:32.390Z,46.53
2022-12-27T22:25:02.050Z,43.60
2022-12-27T22:27:31.646Z,42.60
2022-12-27T22:30:00.074Z,44.70
2022-12-27T22:32:28.896Z,43.53
2022-12-27T22:34:56.372Z,43.70
2022-12-27T22:37:24.434Z,45.38
2022-12-27T22:39:51.847Z,44.13
2022-12-27T22:42:18.739Z,44.20
2022-12-27T22:44:45.887Z,43.55
2022-12-27T22:47:29.441Z,43.65
2022-12-27T22:49:57.158Z,43.40
2022-12-27T22:52:24.427Z,43.22
2022-12-27T22:55:03.900Z,41.88
2022-12-27T22:57:34.252Z,39.92
2022-12-27T23:00:01.366Z,43.17
2022-12-27T23:02:31.077Z,39.50
2022-12-27T23:04:59.915Z,42.80
2022-12-27T23:08:04.123Z,41.63
2022-12-27T23:10:14.037Z,40.78
2022-12-27T23:12:42.151Z,41.90
2022-12-27T23:15:09.514Z,40.58
2022-12-27T23:17:36.379Z,41.33
2022-12-27T23:20:06.172Z,40.67
2022-12-27T23:22:34.665Z,41.40
2022-12-27T23:25:02.978Z,40.70
2022-12-27T23:27:30.638Z,41.03
2022-12-27T23:29:57.993Z,40.50
2022-12-27T23:32:25.470Z,42.88
2022-12-27T23:34:53.897Z,43.35
2022-12-27T23:37:22.234Z,42.17
2022-12-27T23:39:49.193Z,42.35
2022-12-27T23:42:16.879Z,42.53
2022-12-27T23:44:44.457Z,42.95
2022-12-27T23:47:11.615Z,41.92
2022-12-27T23:49:38.925Z,41.70
2022-12-27T23:52:06.964Z,38.42
2022-12-27T23:57:20.623Z,38.65
2022-12-27T23:59:53.021Z,36.35
